sensor_id;sensor_type;location;lat;lon;timestamp;pressure;altitude;pressure_sealevel;temperature;humidity
42591;BME280;28218;53.342;-6.216;2022-09-09T00:01:23;99946.09;;;17.01;100.00
42591;BME280;28218;53.342;-6.216;2022-09-09T00:04:03;99946.53;;;16.98;100.00
42591;BME280;28218;53.342;-6.216;2022-09-09T00:06:42;99932.91;;;16.95;100.00
42591;BME280;28218;53.342;-6.216;2022-09-09T00:09:13;99929.88;;;16.91;100.00
42591;BME280;28218;53.342;-6.216;2022-09-09T00:11:45;99933.59;;;16.90;100.00
42591;BME280;28218;53.342;-6.216;2022-09-09T00:14:20;99937.97;;;16.84;100.00
42591;BME280;28218;53.342;-6.216;2022-09-09T00:16:56;99936.13;;;16.85;100.00
42591;BME280;28218;53.342;-6.216;2022-09-09T00:19:30;99938.78;;;16.85;100.00
42591;BME280;28218;53.342;-6.216;2022-09-09T00:22:13;99937.16;;;16.84;100.00
42591;BME280;28218;53.342;-6.216;2022-09-09T00:24:45;99930.44;;;16.81;100.00
42591;BME280;28218;53.342;-6.216;2022-09-09T00:27:22;99933.34;;;16.80;100.00
42591;BME280;28218;53.342;-6.216;2022-09-09T00:29:54;99930.69;;;16.80;100.00
42591;BME280;28218;53.342;-6.216;2022-09-09T00:32:29;99920.25;;;16.78;100.00
42591;BME280;28218;53.342;-6.216;2022-09-09T00:35:02;99933.56;;;16.78;100.00
42591;BME280;28218;53.342;-6.216;2022-09-09T00:37:31;99920.50;;;16.77;100.00
42591;BME280;28218;53.342;-6.216;2022-09-09T00:40:08;99914.56;;;16.75;100.00
42591;BME280;28218;53.342;-6.216;2022-09-09T00:42:44;99916.66;;;16.73;100.00
42591;BME280;28218;53.342;-6.216;2022-09-09T00:45:30;99911.34;;;16.73;100.00
42591;BME280;28218;53.342;-6.216;2022-09-09T00:48:09;99898.84;;;16.73;100.00
42591;BME280;28218;53.342;-6.216;2022-09-09T00:50:44;99902.16;;;16.69;100.00
42591;BME280;28218;53.342;-6.216;2022-09-09T00:53:26;99902.16;;;16.69;100.00
42591;BME280;28218;53.342;-6.216;2022-09-09T00:56:04;99895.00;;;16.69;100.00
42591;BME280;28218;53.342;-6.216;2022-09-09T00:58:34;99895.78;;;16.70;100.00
42591;BME280;28218;53.342;-6.216;2022-09-09T01:01:04;99890.72;;;16.68;100.00
42591;BME280;28218;53.342;-6.216;2022-09-09T01:03:37;99884.81;;;16.66;100.00
42591;BME280;28218;53.342;-6.216;2022-09-09T01:06:15;99886.31;;;16.62;100.00
42591;BME280;28218;53.342;-6.216;2022-09-09T01:09:07;99887.13;;;16.63;100.00
42591;BME280;28218;53.342;-6.216;2022-09-09T01:11:49;99881.34;;;16.66;100.00
42591;BME280;28218;53.342;-6.216;2022-09-09T01:14:29;99886.06;;;16.64;100.00
42591;BME280;28218;53.342;-6.216;2022-09-09T01:17:03;99882.03;;;16.61;100.00
42591;BME280;28218;53.342;-6.216;2022-09-09T01:19:45;99879.59;;;16.59;100.00
42591;BME280;28218;53.342;-6.216;2022-09-09T01:22:22;99882.25;;;16.59;100.00
42591;BME280;28218;53.342;-6.216;2022-09-09T01:25:19;99874.25;;;16.59;100.00
42591;BME280;28218;53.342;-6.216;2022-09-09T01:27:52;99878.78;;;16.59;100.00
42591;BME280;28218;53.342;-6.216;2022-09-09T01:30:22;99871.03;;;16.57;100.00
42591;BME280;28218;53.342;-6.216;2022-09-09T01:32:53;99870.22;;;16.57;100.00
42591;BME280;28218;53.342;-6.216;2022-09-09T01:35:31;99860.84;;;16.54;100.00
42591;BME280;28218;53.342;-6.216;2022-09-09T01:37:59;99859.22;;;16.53;100.00
42591;BME280;28218;53.342;-6.216;2022-09-09T01:40:27;99865.59;;;16.52;100.00
42591;BME280;28218;53.342;-6.216;2022-09-09T01:42:57;99865.59;;;16.52;100.00
42591;BME280;28218;53.342;-6.216;2022-09-09T01:45:25;99857.63;;;16.52;100.00
42591;BME280;28218;53.342;-6.216;2022-09-09T01:47:54;99860.84;;;16.54;100.00
42591;BME280;28218;53.342;-6.216;2022-09-09T01:50:23;99862.94;;;16.52;100.00
42591;BME280;28218;53.342;-6.216;2022-09-09T01:52:54;99855.41;;;16.49;100.00
42591;BME280;28218;53.342;-6.216;2022-09-09T01:55:29;99850.31;;;16.48;100.00
42591;BME280;28218;53.342;-6.216;2022-09-09T01:58:11;99850.31;;;16.48;100.00
42591;BME280;28218;53.342;-6.216;2022-09-09T02:00:50;99851.69;;;16.50;100.00
42591;BME280;28218;53.342;-6.216;2022-09-09T02:03:24;99848.84;;;16.52;100.00
42591;BME280;28218;53.342;-6.216;2022-09-09T02:05:59;99846.97;;;16.52;100.00
42591;BME280;28218;53.342;-6.216;2022-09-09T02:08:38;99847.44;;;16.49;100.00
42591;BME280;28218;53.342;-6.216;2022-09-09T02:11:11;99840.25;;;16.50;100.00
42591;BME280;28218;53.342;-6.216;2022-09-09T02:13:44;99842.69;;;16.51;100.00
42591;BME280;28218;53.342;-6.216;2022-09-09T02:16:17;99837.59;;;16.50;100.00
42591;BME280;28218;53.342;-6.216;2022-09-09T02:18:51;99841.06;;;16.50;100.00
42591;BME280;28218;53.342;-6.216;2022-09-09T02:21:23;99834.69;;;16.51;100.00
42591;BME280;28218;53.342;-6.216;2022-09-09T02:23:53;99834.69;;;16.51;100.00
42591;BME280;28218;53.342;-6.216;2022-09-09T02:26:23;99832.88;;;16.52;100.00
42591;BME280;28218;53.342;-6.216;2022-09-09T02:28:57;99825.91;;;16.51;100.00
42591;BME280;28218;53.342;-6.216;2022-09-09T02:31:27;99832.63;;;16.53;100.00
42591;BME280;28218;53.342;-6.216;2022-09-09T02:33:59;99830.44;;;16.50;100.00
42591;BME280;28218;53.342;-6.216;2022-09-09T02:36:31;99821.41;;;16.51;100.00
42591;BME280;28218;53.342;-6.216;2022-09-09T02:39:01;99805.44;;;16.51;100.00
42591;BME280;28218;53.342;-6.216;2022-09-09T02:41:32;99788.13;;;16.49;100.00
42591;BME280;28218;53.342;-6.216;2022-09-09T02:44:05;99789.72;;;16.50;100.00
42591;BME280;28218;53.342;-6.216;2022-09-09T02:46:47;99791.34;;;16.51;100.00
42591;BME280;28218;53.342;-6.216;2022-09-09T02:49:25;99790.53;;;16.50;100.00
42591;BME280;28218;53.342;-6.216;2022-09-09T02:52:01;99785.00;;;16.52;100.00
42591;BME280;28218;53.342;-6.216;2022-09-09T02:54:31;99784.19;;;16.51;100.00
42591;BME280;28218;53.342;-6.216;2022-09-09T02:57:03;99777.03;;;16.52;100.00
42591;BME280;28218;53.342;-6.216;2022-09-09T02:59:36;99769.75;;;16.59;100.00
42591;BME280;28218;53.342;-6.216;2022-09-09T03:02:04;99769.19;;;16.57;100.00
42591;BME280;28218;53.342;-6.216;2022-09-09T03:04:32;99759.44;;;16.51;100.00
42591;BME280;28218;53.342;-6.216;2022-09-09T03:07:01;99763.63;;;16.47;100.00
42591;BME280;28218;53.342;-6.216;2022-09-09T03:09:30;99761.16;;;16.45;100.00
42591;BME280;28218;53.342;-6.216;2022-09-09T03:11:59;99760.38;;;16.45;100.00
42591;BME280;28218;53.342;-6.216;2022-09-09T03:14:27;99765.91;;;16.43;100.00
42591;BME280;28218;53.342;-6.216;2022-09-09T03:16:57;99764.53;;;16.41;100.00
42591;BME280;28218;53.342;-6.216;2022-09-09T03:19:27;99763.72;;;16.40;100.00
42591;BME280;28218;53.342;-6.216;2022-09-09T03:21:56;99763.94;;;16.39;100.00
42591;BME280;28218;53.342;-6.216;2022-09-09T03:24:25;99762.34;;;16.38;100.00
42591;BME280;28218;53.342;-6.216;2022-09-09T03:26:53;99769.03;;;16.40;100.00
42591;BME280;28218;53.342;-6.216;2022-09-09T03:29:22;99764.53;;;16.41;100.00
42591;BME280;28218;53.342;-6.216;2022-09-09T03:31:50;99772.50;;;16.41;100.00
42591;BME280;28218;53.342;-6.216;2022-09-09T03:34:20;99769.38;;;16.44;100.00
42591;BME280;28218;53.342;-6.216;2022-09-09T03:36:48;99767.78;;;16.43;100.00
42591;BME280;28218;53.342;-6.216;2022-09-09T03:39:16;99762.09;;;16.39;100.00
42591;BME280;28218;53.342;-6.216;2022-09-09T03:41:44;99768.22;;;16.40;100.00
42591;BME280;28218;53.342;-6.216;2022-09-09T03:44:15;99763.16;;;16.38;100.00
42591;BME280;28218;53.342;-6.216;2022-09-09T03:46:43;99764.16;;;16.37;100.00
42591;BME280;28218;53.342;-6.216;2022-09-09T03:49:11;99767.41;;;16.39;100.00
42591;BME280;28218;53.342;-6.216;2022-09-09T03:51:41;99767.88;;;16.36;100.00
42591;BME280;28218;53.342;-6.216;2022-09-09T03:54:09;99755.38;;;16.36;100.00
42591;BME280;28218;53.342;-6.216;2022-09-09T03:56:37;99761.50;;;16.37;100.00
42591;BME280;28218;53.342;-6.216;2022-09-09T03:59:07;99768.34;;;16.33;100.00
42591;BME280;28218;53.342;-6.216;2022-09-09T04:01:36;99772.00;;;16.32;100.00
42591;BME280;28218;53.342;-6.216;2022-09-09T04:04:04;99765.88;;;16.31;100.00
42591;BME280;28218;53.342;-6.216;2022-09-09T04:06:32;99777.34;;;16.32;100.00
42591;BME280;28218;53.342;-6.216;2022-09-09T04:09:02;99759.31;;;16.34;100.00
42591;BME280;28218;53.342;-6.216;2022-09-09T04:11:30;99766.25;;;16.35;100.00
42591;BME280;28218;53.342;-6.216;2022-09-09T04:13:58;99755.84;;;16.33;100.00
42591;BME280;28218;53.342;-6.216;2022-09-09T04:16:27;99752.38;;;16.33;100.00
42591;BME280;28218;53.342;-6.216;2022-09-09T04:18:56;99761.06;;;16.28;100.00
42591;BME280;28218;53.342;-6.216;2022-09-09T04:21:24;99753.06;;;16.28;100.00
42591;BME280;28218;53.342;-6.216;2022-09-09T04:23:53;99762.91;;;16.28;100.00
42591;BME280;28218;53.342;-6.216;2022-09-09T04:26:22;99766.56;;;16.27;100.00
42591;BME280;28218;53.342;-6.216;2022-09-09T04:28:51;99772.13;;;16.25;100.00
42591;BME280;28218;53.342;-6.216;2022-09-09T04:31:20;99767.63;;;16.26;100.00
42591;BME280;28218;53.342;-6.216;2022-09-09T04:33:50;99771.31;;;16.25;100.00
42591;BME280;28218;53.342;-6.216;2022-09-09T04:36:19;99770.88;;;16.28;100.00
42591;BME280;28218;53.342;-6.216;2022-09-09T04:38:47;99772.69;;;16.27;100.00
42591;BME280;28218;53.342;-6.216;2022-09-09T04:41:16;99771.31;;;16.25;100.00
42591;BME280;28218;53.342;-6.216;2022-09-09T04:43:46;99762.31;;;16.26;100.00
42591;BME280;28218;53.342;-6.216;2022-09-09T04:46:14;99770.88;;;16.28;100.00
42591;BME280;28218;53.342;-6.216;2022-09-09T04:48:43;99766.00;;;16.25;100.00
42591;BME280;28218;53.342;-6.216;2022-09-09T04:51:13;99768.66;;;16.25;100.00
42591;BME280;28218;53.342;-6.216;2022-09-09T04:53:41;99767.06;;;16.24;100.00
42591;BME280;28218;53.342;-6.216;2022-09-09T04:56:12;99766.00;;;16.25;100.00
42591;BME280;28218;53.342;-6.216;2022-09-09T04:58:41;99766.25;;;16.23;100.00
42591;BME280;28218;53.342;-6.216;2022-09-09T05:01:12;99764.41;;;16.24;100.00
42591;BME280;28218;53.342;-6.216;2022-09-09T05:03:40;99765.41;;;16.23;100.00
42591;BME280;28218;53.342;-6.216;2022-09-09T05:06:10;99761.63;;;16.19;100.00
42591;BME280;28218;53.342;-6.216;2022-09-09T05:08:40;99771.78;;;16.22;100.00
42591;BME280;28218;53.342;-6.216;2022-09-09T05:11:14;99763.22;;;16.20;100.00
42591;BME280;28218;53.342;-6.216;2022-09-09T05:13:44;99772.56;;;16.22;100.00
42591;BME280;28218;53.342;-6.216;2022-09-09T05:16:14;99772.56;;;16.22;100.00
42591;BME280;28218;53.342;-6.216;2022-09-09T05:18:43;99778.13;;;16.21;100.00
42591;BME280;28218;53.342;-6.216;2022-09-09T05:21:14;99769.34;;;16.20;100.00
42591;BME280;28218;53.342;-6.216;2022-09-09T05:23:42;99772.56;;;16.22;100.00
42591;BME280;28218;53.342;-6.216;2022-09-09T05:26:13;99771.78;;;16.22;100.00
42591;BME280;28218;53.342;-6.216;2022-09-09T05:28:44;99778.13;;;16.21;100.00
42591;BME280;28218;53.342;-6.216;2022-09-09T05:31:16;99778.69;;;16.23;100.00
42591;BME280;28218;53.342;-6.216;2022-09-09T05:33:45;99777.09;;;16.22;100.00
42591;BME280;28218;53.342;-6.216;2022-09-09T05:36:16;99778.13;;;16.21;100.00
42591;BME280;28218;53.342;-6.216;2022-09-09T05:38:44;99777.09;;;16.22;100.00
42591;BME280;28218;53.342;-6.216;2022-09-09T05:41:13;99788.31;;;16.24;100.00
42591;BME280;28218;53.342;-6.216;2022-09-09T05:43:43;99789.44;;;16.16;100.00
42591;BME280;28218;53.342;-6.216;2022-09-09T05:46:16;99790.69;;;16.14;100.00
42591;BME280;28218;53.342;-6.216;2022-09-09T05:48:45;99784.56;;;16.13;100.00
42591;BME280;28218;53.342;-6.216;2022-09-09T05:51:16;99800.06;;;16.16;100.00
42591;BME280;28218;53.342;-6.216;2022-09-09T05:53:45;99801.69;;;16.17;100.00
42591;BME280;28218;53.342;-6.216;2022-09-09T05:56:15;99802.50;;;16.18;100.00
42591;BME280;28218;53.342;-6.216;2022-09-09T05:58:44;99815.56;;;16.19;100.00
42591;BME280;28218;53.342;-6.216;2022-09-09T06:01:16;99807.72;;;16.24;100.00
42591;BME280;28218;53.342;-6.216;2022-09-09T06:03:45;99813.03;;;16.24;100.00
42591;BME280;28218;53.342;-6.216;2022-09-09T06:06:16;99812.81;;;16.26;100.00
42591;BME280;28218;53.342;-6.216;2022-09-09T06:08:49;99819.16;;;16.25;100.00
42591;BME280;28218;53.342;-6.216;2022-09-09T06:11:19;99819.16;;;16.25;100.00
42591;BME280;28218;53.342;-6.216;2022-09-09T06:13:48;99820.09;;;16.19;100.00
42591;BME280;28218;53.342;-6.216;2022-09-09T06:16:21;99819.03;;;16.20;100.00
42591;BME280;28218;53.342;-6.216;2022-09-09T06:18:51;99819.63;;;16.22;100.00
42591;BME280;28218;53.342;-6.216;2022-09-09T06:21:22;99823.69;;;16.24;100.00
42591;BME280;28218;53.342;-6.216;2022-09-09T06:23:50;99835.47;;;16.28;100.00
42591;BME280;28218;53.342;-6.216;2022-09-09T06:26:26;99833.16;;;16.32;100.00
42591;BME280;28218;53.342;-6.216;2022-09-09T06:28:55;99832.59;;;16.30;100.00
42591;BME280;28218;53.342;-6.216;2022-09-09T06:31:27;99833.16;;;16.32;100.00
42591;BME280;28218;53.342;-6.216;2022-09-09T06:33:58;99840.69;;;16.35;100.00
42591;BME280;28218;53.342;-6.216;2022-09-09T06:36:27;99849.03;;;16.39;100.00
42591;BME280;28218;53.342;-6.216;2022-09-09T06:38:55;99843.91;;;16.37;100.00
42591;BME280;28218;53.342;-6.216;2022-09-09T06:41:25;99842.66;;;16.40;100.00
42591;BME280;28218;53.342;-6.216;2022-09-09T06:43:54;99850.63;;;16.40;100.00
42591;BME280;28218;53.342;-6.216;2022-09-09T06:46:26;99853.88;;;16.42;100.00
42591;BME280;28218;53.342;-6.216;2022-09-09T06:48:55;99855.50;;;16.43;100.00
42591;BME280;28218;53.342;-6.216;2022-09-09T06:51:28;99859.78;;;16.44;100.00
42591;BME280;28218;53.342;-6.216;2022-09-09T06:53:58;99854.84;;;16.47;100.00
42591;BME280;28218;53.342;-6.216;2022-09-09T06:56:27;99854.03;;;16.47;100.00
42591;BME280;28218;53.342;-6.216;2022-09-09T06:58:57;99857.50;;;16.47;100.00
42591;BME280;28218;53.342;-6.216;2022-09-09T07:01:32;99866.28;;;16.48;100.00
42591;BME280;28218;53.342;-6.216;2022-09-09T07:04:03;99870.78;;;16.47;100.00
42591;BME280;28218;53.342;-6.216;2022-09-09T07:06:35;99869.97;;;16.47;100.00
42591;BME280;28218;53.342;-6.216;2022-09-09T07:09:05;99879.78;;;16.46;100.00
42591;BME280;28218;53.342;-6.216;2022-09-09T07:11:37;99875.88;;;16.49;100.00
42591;BME280;28218;53.342;-6.216;2022-09-09T07:14:06;99877.72;;;16.48;100.00
42591;BME280;28218;53.342;-6.216;2022-09-09T07:16:35;99884.09;;;16.47;100.00
42591;BME280;28218;53.342;-6.216;2022-09-09T07:19:05;99882.81;;;16.50;100.00
42591;BME280;28218;53.342;-6.216;2022-09-09T07:21:33;99882.56;;;16.51;100.00
42591;BME280;28218;53.342;-6.216;2022-09-09T07:24:03;99890.34;;;16.53;100.00
42591;BME280;28218;53.342;-6.216;2022-09-09T07:26:33;99890.91;;;16.55;100.00
42591;BME280;28218;53.342;-6.216;2022-09-09T07:29:02;99895.53;;;16.59;100.00
42591;BME280;28218;53.342;-6.216;2022-09-09T07:31:32;99897.84;;;16.56;100.00
42591;BME280;28218;53.342;-6.216;2022-09-09T07:34:04;99903.03;;;16.51;100.00
42591;BME280;28218;53.342;-6.216;2022-09-09T07:36:33;99899.44;;;16.45;100.00
42591;BME280;28218;53.342;-6.216;2022-09-09T07:39:04;99902.69;;;16.47;100.00
42591;BME280;28218;53.342;-6.216;2022-09-09T07:41:36;99907.53;;;16.50;100.00
42591;BME280;28218;53.342;-6.216;2022-09-09T07:44:06;99914.41;;;16.58;100.00
42591;BME280;28218;53.342;-6.216;2022-09-09T07:46:35;99911.88;;;16.63;100.00
42591;BME280;28218;53.342;-6.216;2022-09-09T07:49:05;99921.38;;;16.71;100.00
42591;BME280;28218;53.342;-6.216;2022-09-09T07:51:35;99928.47;;;16.77;100.00
42591;BME280;28218;53.342;-6.216;2022-09-09T07:54:05;99922.47;;;16.81;100.00
42591;BME280;28218;53.342;-6.216;2022-09-09T07:56:36;99922.84;;;16.85;100.00
42591;BME280;28218;53.342;-6.216;2022-09-09T07:59:06;99929.16;;;16.84;100.00
42591;BME280;28218;53.342;-6.216;2022-09-09T08:01:38;99936.25;;;16.90;100.00
42591;BME280;28218;53.342;-6.216;2022-09-09T08:04:09;99935.91;;;16.98;100.00
42591;BME280;28218;53.342;-6.216;2022-09-09T08:06:44;99947.63;;;17.09;100.00
42591;BME280;28218;53.342;-6.216;2022-09-09T08:09:13;99951.44;;;17.25;100.00
42591;BME280;28218;53.342;-6.216;2022-09-09T08:11:42;99959.09;;;17.33;100.00
42591;BME280;28218;53.342;-6.216;2022-09-09T08:14:11;99960.16;;;17.44;100.00
42591;BME280;28218;53.342;-6.216;2022-09-09T08:16:42;99954.94;;;17.49;100.00
42591;BME280;28218;53.342;-6.216;2022-09-09T08:19:12;99953.56;;;17.46;100.00
42591;BME280;28218;53.342;-6.216;2022-09-09T08:21:42;99950.91;;;17.46;100.00
42591;BME280;28218;53.342;-6.216;2022-09-09T08:24:11;99946.13;;;17.48;100.00
42591;BME280;28218;53.342;-6.216;2022-09-09T08:26:43;99940.34;;;17.51;100.00
42591;BME280;28218;53.342;-6.216;2022-09-09T08:29:13;99950.06;;;17.57;100.00
42591;BME280;28218;53.342;-6.216;2022-09-09T08:31:43;99952.84;;;17.62;100.00
42591;BME280;28218;53.342;-6.216;2022-09-09T08:34:13;99951.69;;;17.70;100.00
42591;BME280;28218;53.342;-6.216;2022-09-09T08:36:43;99966.53;;;17.78;100.00
42591;BME280;28218;53.342;-6.216;2022-09-09T08:39:13;99969.28;;;17.83;100.00
42591;BME280;28218;53.342;-6.216;2022-09-09T08:41:56;99980.53;;;17.85;100.00
42591;BME280;28218;53.342;-6.216;2022-09-09T08:44:39;99981.47;;;17.91;100.00
42591;BME280;28218;53.342;-6.216;2022-09-09T08:47:20;99999.97;;;17.97;100.00
42591;BME280;28218;53.342;-6.216;2022-09-09T08:50:11;100007.06;;;18.03;100.00
42591;BME280;28218;53.342;-6.216;2022-09-09T08:52:47;100018.63;;;18.09;100.00
42591;BME280;28218;53.342;-6.216;2022-09-09T08:55:24;100029.41;;;18.14;100.00
42591;BME280;28218;53.342;-6.216;2022-09-09T08:57:58;100043.34;;;18.16;100.00
42591;BME280;28218;53.342;-6.216;2022-09-09T09:00:35;100059.44;;;18.21;100.00
42591;BME280;28218;53.342;-6.216;2022-09-09T09:03:15;100070.41;;;18.25;100.00
42591;BME280;28218;53.342;-6.216;2022-09-09T09:05:54;100082.13;;;18.24;100.00
42591;BME280;28218;53.342;-6.216;2022-09-09T09:08:29;100099.44;;;18.21;100.00
42591;BME280;28218;53.342;-6.216;2022-09-09T09:11:02;100111.81;;;18.16;100.00
42591;BME280;28218;53.342;-6.216;2022-09-09T09:13:34;100125.63;;;18.12;100.00
42591;BME280;28218;53.342;-6.216;2022-09-09T09:16:15;100132.00;;;18.11;100.00
42591;BME280;28218;53.342;-6.216;2022-09-09T09:18:45;100139.41;;;18.09;100.00
42591;BME280;28218;53.342;-6.216;2022-09-09T09:21:17;100150.06;;;18.09;100.00
42591;BME280;28218;53.342;-6.216;2022-09-09T09:23:55;100158.75;;;18.05;100.00
42591;BME280;28218;53.342;-6.216;2022-09-09T09:26:26;100176.38;;;18.06;100.00
42591;BME280;28218;53.342;-6.216;2022-09-09T09:28:59;100179.28;;;18.04;100.00
42591;BME280;28218;53.342;-6.216;2022-09-09T09:31:29;100183.56;;;18.05;100.00
42591;BME280;28218;53.342;-6.216;2022-09-09T09:33:58;100183.69;;;18.10;100.00
42591;BME280;28218;53.342;-6.216;2022-09-09T09:36:39;100192.28;;;18.12;100.00
42591;BME280;28218;53.342;-6.216;2022-09-09T09:39:09;100189.97;;;18.16;100.00
42591;BME280;28218;53.342;-6.216;2022-09-09T09:41:57;100199.47;;;18.24;100.00
42591;BME280;28218;53.342;-6.216;2022-09-09T09:44:32;100202.25;;;18.29;100.00
42591;BME280;28218;53.342;-6.216;2022-09-09T09:47:08;100203.06;;;18.29;100.00
42591;BME280;28218;53.342;-6.216;2022-09-09T09:49:37;100213.28;;;18.32;100.00
42591;BME280;28218;53.342;-6.216;2022-09-09T09:52:17;100216.63;;;18.39;100.00
42591;BME280;28218;53.342;-6.216;2022-09-09T09:54:50;100227.09;;;18.41;100.00
42591;BME280;28218;53.342;-6.216;2022-09-09T09:57:23;100230.69;;;18.47;100.00
42591;BME280;28218;53.342;-6.216;2022-09-09T10:00:03;100236.81;;;18.47;100.00
42591;BME280;28218;53.342;-6.216;2022-09-09T10:02:38;100241.00;;;18.55;100.00
42591;BME280;28218;53.342;-6.216;2022-09-09T10:05:13;100244.03;;;18.58;100.00
42591;BME280;28218;53.342;-6.216;2022-09-09T10:07:44;100245.16;;;18.62;100.00
42591;BME280;28218;53.342;-6.216;2022-09-09T10:10:15;100245.41;;;18.61;100.00
42591;BME280;28218;53.342;-6.216;2022-09-09T10:12:59;100250.75;;;18.61;100.00
42591;BME280;28218;53.342;-6.216;2022-09-09T10:15:37;100258.50;;;18.62;100.00
42591;BME280;28218;53.342;-6.216;2022-09-09T10:18:25;100274.31;;;18.64;100.00
42591;BME280;28218;53.342;-6.216;2022-09-09T10:21:03;100283.69;;;18.67;100.00
42591;BME280;28218;53.342;-6.216;2022-09-09T10:23:47;100290.47;;;18.69;100.00
42591;BME280;28218;53.342;-6.216;2022-09-09T10:26:30;100291.28;;;18.70;100.00
42591;BME280;28218;53.342;-6.216;2022-09-09T10:29:14;100301.31;;;18.68;100.00
42591;BME280;28218;53.342;-6.216;2022-09-09T10:31:54;100306.91;;;18.66;100.00
42591;BME280;28218;53.342;-6.216;2022-09-09T10:34:49;100316.75;;;18.65;100.00
42591;BME280;28218;53.342;-6.216;2022-09-09T10:40:23;100330.00;;;18.72;100.00
42591;BME280;28218;53.342;-6.216;2022-09-09T10:43:03;100336.88;;;18.80;100.00
42591;BME280;28218;53.342;-6.216;2022-09-09T10:45:41;100346.53;;;18.93;100.00
42591;BME280;28218;53.342;-6.216;2022-09-09T10:48:31;100345.81;;;19.09;100.00
42591;BME280;28218;53.342;-6.216;2022-09-09T10:51:17;100354.75;;;19.14;100.00
42591;BME280;28218;53.342;-6.216;2022-09-09T10:53:53;100362.53;;;19.16;100.00
42591;BME280;28218;53.342;-6.216;2022-09-09T10:56:28;100382.16;;;19.22;100.00
42591;BME280;28218;53.342;-6.216;2022-09-09T10:59:00;100390.41;;;19.20;100.00
42591;BME280;28218;53.342;-6.216;2022-09-09T11:01:32;100393.41;;;19.24;100.00
42591;BME280;28218;53.342;-6.216;2022-09-09T11:04:06;100413.16;;;19.34;100.00
42591;BME280;28218;53.342;-6.216;2022-09-09T11:06:41;100407.22;;;19.44;100.00
42591;BME280;28218;53.342;-6.216;2022-09-09T11:09:15;100411.38;;;19.75;100.00
42591;BME280;28218;53.342;-6.216;2022-09-09T11:11:51;100425.28;;;20.01;100.00
42591;BME280;28218;53.342;-6.216;2022-09-09T11:14:26;100432.81;;;20.04;100.00
42591;BME280;28218;53.342;-6.216;2022-09-09T11:17:06;100451.91;;;19.96;100.00
42591;BME280;28218;53.342;-6.216;2022-09-09T11:19:38;100464.25;;;19.85;100.00
42591;BME280;28218;53.342;-6.216;2022-09-09T11:22:12;100477.03;;;19.71;100.00
42591;BME280;28218;53.342;-6.216;2022-09-09T11:24:47;100492.16;;;19.54;100.00
42591;BME280;28218;53.342;-6.216;2022-09-09T11:27:22;100496.41;;;19.43;100.00
42591;BME280;28218;53.342;-6.216;2022-09-09T11:30:05;100508.53;;;19.34;100.00
42591;BME280;28218;53.342;-6.216;2022-09-09T11:33:04;100511.66;;;19.31;100.00
42591;BME280;28218;53.342;-6.216;2022-09-09T11:35:55;100509.47;;;19.39;100.00
42591;BME280;28218;53.342;-6.216;2022-09-09T11:38:29;100508.91;;;19.73;100.00
42591;BME280;28218;53.342;-6.216;2022-09-09T11:41:02;100507.09;;;20.13;100.00
42591;BME280;28218;53.342;-6.216;2022-09-09T11:43:38;100502.72;;;20.36;100.00
42591;BME280;28218;53.342;-6.216;2022-09-09T11:46:08;100502.50;;;20.37;100.00
42591;BME280;28218;53.342;-6.216;2022-09-09T11:48:39;100504.84;;;20.34;100.00
42591;BME280;28218;53.342;-6.216;2022-09-09T11:51:11;100516.38;;;20.23;100.00
42591;BME280;28218;53.342;-6.216;2022-09-09T11:53:50;100526.06;;;20.12;100.00
42591;BME280;28218;53.342;-6.216;2022-09-09T11:56:27;100534.13;;;20.00;100.00
42591;BME280;28218;53.342;-6.216;2022-09-09T11:59:00;100545.25;;;19.85;100.00
42591;BME280;28218;53.342;-6.216;2022-09-09T12:01:35;100546.44;;;19.78;100.00
42591;BME280;28218;53.342;-6.216;2022-09-09T12:04:28;100551.06;;;19.71;100.00
42591;BME280;28218;53.342;-6.216;2022-09-09T12:07:03;100550.63;;;19.74;100.00
42591;BME280;28218;53.342;-6.216;2022-09-09T12:09:46;100545.84;;;19.76;100.00
42591;BME280;28218;53.342;-6.216;2022-09-09T12:12:24;100546.91;;;19.75;100.00
42591;BME280;28218;53.342;-6.216;2022-09-09T12:15:20;100544.13;;;19.70;100.00
42591;BME280;28218;53.342;-6.216;2022-09-09T12:17:50;100541.78;;;19.61;100.00
42591;BME280;28218;53.342;-6.216;2022-09-09T12:20:20;100546.16;;;19.56;100.00
42591;BME280;28218;53.342;-6.216;2022-09-09T12:23:13;100538.16;;;19.44;100.00
42591;BME280;28218;53.342;-6.216;2022-09-09T12:25:53;100547.44;;;19.41;100.00
42591;BME280;28218;53.342;-6.216;2022-09-09T12:28:30;100544.06;;;19.34;100.00
42591;BME280;28218;53.342;-6.216;2022-09-09T12:31:06;100547.63;;;19.28;100.00
42591;BME280;28218;53.342;-6.216;2022-09-09T12:33:40;100553.66;;;19.24;100.00
42591;BME280;28218;53.342;-6.216;2022-09-09T12:36:12;100553.09;;;19.22;100.00
42591;BME280;28218;53.342;-6.216;2022-09-09T12:38:43;100555.19;;;19.20;100.00
42591;BME280;28218;53.342;-6.216;2022-09-09T12:41:19;100554.72;;;19.23;100.00
42591;BME280;28218;53.342;-6.216;2022-09-09T12:43:49;100550.53;;;19.27;100.00
42591;BME280;28218;53.342;-6.216;2022-09-09T12:46:27;100541.59;;;19.33;100.00
42591;BME280;28218;53.342;-6.216;2022-09-09T12:49:00;100540.09;;;19.37;100.00
42591;BME280;28218;53.342;-6.216;2022-09-09T12:51:30;100533.38;;;19.46;100.00
42591;BME280;28218;53.342;-6.216;2022-09-09T12:53:59;100529.91;;;19.57;100.00
42591;BME280;28218;53.342;-6.216;2022-09-09T12:56:31;100538.41;;;19.66;100.00
42591;BME280;28218;53.342;-6.216;2022-09-09T12:59:00;100542.84;;;19.72;100.00
42591;BME280;28218;53.342;-6.216;2022-09-09T13:01:31;100547.50;;;19.77;100.00
42591;BME280;28218;53.342;-6.216;2022-09-09T13:04:00;100546.69;;;19.76;100.00
42591;BME280;28218;53.342;-6.216;2022-09-09T13:06:30;100565.72;;;19.80;100.00
42591;BME280;28218;53.342;-6.216;2022-09-09T13:09:00;100575.50;;;19.86;100.00
42591;BME280;28218;53.342;-6.216;2022-09-09T13:11:31;100584.13;;;20.00;100.00